createdAt,value
2023-01-01T00:20:42.365Z,67.63
2023-01-01T00:23:11.244Z,67.60
2023-01-01T00:25:40.957Z,67.82
2023-01-01T00:28:11.111Z,67.93
2023-01-01T00:30:42.691Z,67.60
2023-01-01T00:33:11.558Z,68.03
2023-01-01T00:35:40.720Z,68.23
2023-01-01T00:38:10.766Z,68.01
2023-01-01T00:40:40.148Z,67.81
2023-01-01T00:43:08.827Z,68.10
2023-01-01T00:45:38.040Z,68.04
2023-01-01T00:48:07.325Z,68.13
2023-01-01T00:50:37.403Z,68.38
2023-01-01T00:53:06.553Z,68.21
2023-01-01T00:55:36.293Z,67.82
2023-01-01T00:58:04.938Z,67.95
2023-01-01T01:00:33.701Z,68.07
2023-01-01T01:03:02.505Z,67.91
2023-01-01T01:05:33.380Z,67.68
2023-01-01T01:08:02.201Z,67.87
2023-01-01T01:10:30.640Z,67.69
2023-01-01T01:13:00.995Z,67.38
2023-01-01T01:15:32.527Z,67.46
2023-01-01T01:18:01.503Z,67.32
2023-01-01T01:20:30.292Z,67.29
2023-01-01T01:22:59.228Z,67.39
2023-01-01T01:25:28.478Z,67.55
2023-01-01T01:27:56.918Z,67.98
2023-01-01T01:30:27.067Z,67.58
2023-01-01T01:32:56.456Z,67.75
2023-01-01T01:35:24.872Z,67.90
2023-01-01T01:37:53.986Z,67.75
2023-01-01T01:40:22.836Z,67.83
2023-01-01T01:42:52.802Z,68.21
2023-01-01T01:45:21.166Z,67.90
2023-01-01T01:47:54.573Z,68.25
2023-01-01T01:50:27.758Z,68.28
2023-01-01T01:53:04.570Z,68.16
2023-01-01T01:55:36.450Z,68.13
2023-01-01T01:58:07.098Z,68.20
2023-01-01T02:00:36.687Z,68.12
2023-01-01T02:03:09.178Z,68.35
2023-01-01T02:05:41.928Z,68.12
2023-01-01T02:08:14.571Z,68.57
2023-01-01T02:10:47.072Z,68.45
2023-01-01T02:13:16.166Z,68.37
2023-01-01T02:15:53.447Z,68.60
2023-01-01T02:18:26.719Z,68.63
2023-01-01T02:21:01.262Z,68.52
2023-01-01T02:24:01.933Z,68.56
2023-01-01T02:26:43.670Z,68.32
2023-01-01T02:29:21.899Z,68.68
2023-01-01T02:31:54.756Z,68.37
2023-01-01T02:34:27.868Z,68.50
2023-01-01T02:36:59.379Z,68.47
2023-01-01T02:39:34.782Z,68.38
2023-01-01T02:42:07.098Z,68.16
2023-01-01T02:44:42.698Z,68.32
2023-01-01T02:47:14.941Z,68.18
2023-01-01T02:49:56.249Z,68.43
2023-01-01T02:52:43.471Z,68.27
2023-01-01T02:55:25.992Z,68.26
2023-01-01T02:58:22.603Z,68.37
2023-01-01T03:00:56.252Z,68.33
2023-01-01T03:03:33.647Z,68.34
2023-01-01T03:06:27.782Z,68.63
2023-01-01T03:09:09.476Z,68.64
2023-01-01T03:11:47.166Z,68.50
2023-01-01T03:14:21.963Z,68.64
2023-01-01T03:16:59.147Z,68.69
2023-01-01T03:19:31.105Z,68.56
2023-01-01T03:22:05.482Z,68.46
2023-01-01T03:24:36.247Z,68.71
2023-01-01T03:27:09.669Z,68.43
2023-01-01T03:29:41.918Z,68.70
2023-01-01T03:32:15.141Z,68.59
2023-01-01T03:34:49.478Z,68.78
2023-01-01T03:37:26.772Z,69.21
2023-01-01T03:39:59.560Z,68.97
2023-01-01T03:42:34.805Z,69.27
2023-01-01T03:45:08.212Z,69.27
2023-01-01T03:47:38.476Z,68.94
2023-01-01T03:50:08.795Z,69.04
2023-01-01T03:52:44.676Z,68.96
2023-01-01T03:55:19.946Z,68.86
2023-01-01T03:57:56.674Z,68.83
2023-01-01T04:00:32.545Z,68.86
2023-01-01T04:03:07.774Z,69.34
2023-01-01T04:05:38.809Z,69.37
2023-01-01T04:08:09.678Z,69.46
2023-01-01T04:10:42.980Z,69.41
2023-01-01T04:13:12.219Z,69.59
2023-01-01T04:15:41.032Z,69.70
2023-01-01T04:18:11.184Z,69.69
2023-01-01T04:20:39.617Z,69.93
2023-01-01T04:23:09.151Z,69.71
2023-01-01T04:25:38.189Z,69.94
2023-01-01T04:28:06.794Z,69.87
2023-01-01T04:33:03.988Z,69.39
2023-01-01T04:35:35.734Z,69.54
2023-01-01T04:38:04.288Z,69.61
2023-01-01T04:40:34.142Z,69.46
2023-01-01T04:43:02.866Z,69.78
2023-01-01T04:45:32.345Z,69.67
2023-01-01T04:48:05.867Z,69.90
2023-01-01T04:50:36.128Z,69.78
2023-01-01T04:53:04.752Z,69.90
2023-01-01T04:55:35.213Z,69.56
2023-01-01T04:58:04.671Z,69.64
2023-01-01T05:00:33.158Z,69.53
2023-01-01T05:03:02.838Z,69.79
2023-01-01T05:05:31.449Z,69.62
2023-01-01T05:08:02.042Z,69.48
2023-01-01T05:10:30.612Z,69.61
2023-01-01T05:12:59.804Z,69.35
2023-01-01T05:15:28.778Z,69.39
2023-01-01T05:17:57.414Z,69.56
2023-01-01T05:20:26.697Z,69.73
2023-01-01T05:22:55.125Z,69.76
2023-01-01T05:25:25.936Z,69.80
2023-01-01T05:27:55.363Z,69.69
2023-01-01T05:30:24.667Z,69.73
2023-01-01T05:32:53.425Z,69.38
2023-01-01T05:35:26.174Z,69.85
2023-01-01T05:37:56.154Z,69.78
2023-01-01T05:40:25.834Z,69.67
2023-01-01T05:42:54.451Z,69.66
2023-01-01T05:45:23.113Z,69.80
2023-01-01T05:47:52.102Z,69.58
2023-01-01T05:50:20.525Z,69.88
2023-01-01T05:52:49.832Z,69.88
2023-01-01T05:55:18.531Z,69.95
2023-01-01T05:57:48.206Z,69.70
2023-01-01T06:00:17.821Z,69.77
2023-01-01T06:02:46.210Z,69.61
2023-01-01T06:05:15.057Z,69.63
2023-01-01T06:07:48.403Z,69.80
2023-01-01T06:10:18.277Z,70.04
2023-01-01T06:12:47.926Z,69.86
2023-01-01T06:15:17.125Z,69.93
2023-01-01T06:17:45.474Z,70.04
2023-01-01T06:20:14.573Z,69.92
2023-01-01T06:22:42.989Z,70.00
2023-01-01T06:25:12.690Z,70.21
2023-01-01T06:27:42.064Z,70.16
2023-01-01T06:30:13.167Z,70.31
2023-01-01T06:32:41.496Z,70.48
2023-01-01T06:35:10.551Z,70.56
2023-01-01T06:37:38.882Z,70.50
2023-01-01T06:40:09.407Z,70.49
2023-01-01T06:42:37.720Z,70.45
2023-01-01T06:45:08.043Z,70.31
2023-01-01T06:47:38.628Z,70.38
2023-01-01T06:50:09.297Z,70.58
2023-01-01T06:52:37.657Z,70.79
2023-01-01T06:55:08.081Z,70.70
2023-01-01T06:57:36.589Z,70.72
2023-01-01T07:00:06.704Z,70.76
2023-01-01T07:02:37.538Z,70.89
2023-01-01T07:05:07.411Z,70.95
2023-01-01T07:07:36.203Z,70.97
2023-01-01T07:10:05.903Z,71.11
2023-01-01T07:12:34.442Z,71.03
2023-01-01T07:15:03.187Z,71.04
2023-01-01T07:17:32.483Z,70.73
2023-01-01T07:20:02.230Z,70.87
2023-01-01T07:22:31.616Z,70.88
2023-01-01T07:24:59.922Z,70.80
2023-01-01T07:27:28.556Z,70.61
2023-01-01T07:29:57.037Z,70.51
2023-01-01T07:32:25.437Z,70.51
2023-01-01T07:34:53.752Z,70.45
2023-01-01T07:37:26.133Z,70.46
2023-01-01T07:39:54.761Z,70.25
2023-01-01T07:42:23.084Z,69.98
2023-01-01T07:44:52.367Z,69.85
2023-01-01T07:47:23.962Z,69.77
2023-01-01T07:49:52.753Z,69.75
2023-01-01T07:52:21.175Z,69.69
2023-01-01T07:54:50.815Z,69.60
2023-01-01T07:57:19.652Z,69.31
2023-01-01T07:59:48.312Z,69.58
2023-01-01T08:02:16.766Z,69.45
2023-01-01T08:04:45.242Z,69.08
2023-01-01T08:07:13.563Z,68.82
2023-01-01T08:09:41.994Z,68.78
2023-01-01T08:12:11.673Z,68.71
2023-01-01T08:14:40.780Z,68.60
2023-01-01T08:17:09.124Z,68.61
2023-01-01T08:19:38.165Z,68.58
2023-01-01T08:22:07.024Z,68.52
2023-01-01T08:24:36.078Z,68.35
2023-01-01T08:27:05.056Z,68.52
2023-01-01T08:29:35.134Z,68.28
2023-01-01T08:32:03.880Z,68.03
2023-01-01T08:34:32.209Z,67.96
2023-01-01T08:37:01.033Z,67.75
2023-01-01T08:39:30.011Z,67.61
2023-01-01T08:41:58.332Z,67.30
2023-01-01T08:44:26.659Z,66.41
2023-01-01T08:46:56.347Z,66.42
2023-01-01T08:49:25.165Z,66.02
2023-01-01T08:51:53.518Z,65.81
2023-01-01T08:54:22.328Z,65.87
2023-01-01T08:56:50.704Z,65.97
2023-01-01T08:59:20.726Z,65.88
2023-01-01T09:01:49.770Z,66.06
2023-01-01T09:04:19.659Z,65.51
2023-01-01T09:06:47.972Z,65.65
2023-01-01T09:09:18.692Z,65.28
2023-01-01T09:11:52.084Z,64.60
2023-01-01T09:14:20.888Z,64.84
2023-01-01T09:16:49.509Z,64.35
2023-01-01T09:19:21.701Z,64.33
2023-01-01T09:21:50.049Z,64.39
2023-01-01T09:24:18.401Z,63.98
2023-01-01T09:26:47.617Z,63.27
2023-01-01T09:29:18.515Z,62.56
2023-01-01T09:31:48.023Z,62.53
2023-01-01T09:34:18.019Z,61.94
2023-01-01T09:36:48.797Z,61.75
2023-01-01T09:39:19.006Z,61.32
2023-01-01T09:41:58.675Z,60.93
2023-01-01T09:44:45.650Z,60.37
2023-01-01T09:47:25.123Z,59.87
2023-01-01T09:49:58.387Z,59.49
2023-01-01T09:52:36.779Z,59.64
2023-01-01T09:55:16.308Z,59.25
2023-01-01T09:57:44.649Z,58.93
2023-01-01T10:00:17.450Z,58.72
2023-01-01T10:03:02.578Z,58.14
2023-01-01T10:05:42.933Z,58.03
2023-01-01T10:08:24.664Z,57.73
2023-01-01T10:11:02.904Z,57.32
2023-01-01T10:13:38.133Z,56.72
2023-01-01T10:16:13.451Z,57.01
2023-01-01T10:18:44.501Z,56.46
2023-01-01T10:21:17.871Z,55.98
2023-01-01T10:23:51.551Z,55.66
2023-01-01T10:26:23.947Z,55.19
2023-01-01T10:29:01.635Z,54.51
2023-01-01T10:31:34.592Z,54.43
2023-01-01T10:34:12.835Z,54.02
2023-01-01T10:36:41.715Z,53.67
2023-01-01T10:39:16.043Z,53.12
2023-01-01T10:41:44.945Z,52.75
2023-01-01T10:44:15.065Z,52.47
2023-01-01T10:46:48.860Z,51.84
2023-01-01T10:49:17.213Z,51.63
2023-01-01T10:51:48.511Z,51.30
2023-01-01T10:54:36.666Z,50.98
2023-01-01T10:57:15.944Z,50.68
2023-01-01T10:59:51.737Z,50.01
2023-01-01T11:02:25.185Z,49.71
2023-01-01T11:05:20.850Z,49.14
2023-01-01T11:07:51.366Z,48.79
2023-01-01T11:10:23.826Z,48.49
2023-01-01T11:13:10.237Z,48.01
2023-01-01T11:15:41.016Z,47.71
2023-01-01T11:18:16.681Z,47.52
2023-01-01T11:20:45.193Z,47.46
2023-01-01T11:23:29.622Z,47.15
2023-01-01T11:26:01.665Z,47.08
2023-01-01T11:28:34.706Z,46.73
2023-01-01T11:31:22.618Z,46.90
2023-01-01T11:33:53.896Z,46.43
2023-01-01T11:36:25.046Z,46.44
2023-01-01T11:39:08.241Z,46.25
2023-01-01T11:41:46.403Z,45.87
2023-01-01T11:44:26.875Z,45.82
2023-01-01T11:46:55.497Z,45.21
2023-01-01T11:49:29.204Z,45.37
2023-01-01T11:51:58.687Z,45.11
2023-01-01T11:54:32.831Z,44.87
2023-01-01T11:57:11.064Z,44.71
2023-01-01T11:59:46.759Z,44.91
2023-01-01T12:02:22.572Z,44.90
2023-01-01T12:04:57.038Z,44.84
2023-01-01T12:07:32.321Z,44.41
2023-01-01T12:10:05.730Z,44.44
2023-01-01T12:12:40.428Z,44.62
2023-01-01T12:15:19.829Z,44.35
2023-01-01T12:17:53.275Z,44.26
2023-01-01T12:20:26.953Z,44.65
2023-01-01T12:22:56.807Z,44.36
2023-01-01T12:25:33.777Z,44.24
2023-01-01T12:28:13.293Z,44.38
2023-01-01T12:30:50.709Z,43.74
2023-01-01T12:33:34.182Z,43.46
2023-01-01T12:36:20.525Z,43.94
2023-01-01T12:39:41.501Z,43.29
2023-01-01T12:42:18.622Z,43.13
2023-01-01T12:45:09.198Z,43.28
2023-01-01T12:47:45.813Z,42.49
2023-01-01T12:50:28.706Z,43.10
2023-01-01T12:53:08.892Z,42.92
2023-01-01T12:56:22.451Z,42.72
2023-01-01T12:58:56.795Z,42.67
2023-01-01T13:01:33.330Z,42.79
2023-01-01T13:04:05.303Z,42.56
2023-01-01T13:06:41.102Z,42.17
2023-01-01T13:09:16.639Z,42.56
2023-01-01T13:11:47.760Z,42.25
2023-01-01T13:14:16.869Z,42.24
2023-01-01T13:16:50.597Z,41.39
2023-01-01T13:19:28.671Z,41.80
2023-01-01T13:21:56.981Z,41.62
2023-01-01T13:24:27.840Z,41.59
2023-01-01T13:26:56.611Z,41.58
2023-01-01T13:29:44.181Z,41.39
2023-01-01T13:32:16.072Z,41.33
2023-01-01T13:35:03.905Z,40.80
2023-01-01T13:37:45.252Z,40.77
2023-01-01T13:40:47.987Z,41.21
2023-01-01T13:43:29.328Z,40.64
2023-01-01T13:46:15.230Z,40.77
2023-01-01T13:49:13.746Z,41.09
2023-01-01T13:52:06.445Z,40.75
2023-01-01T13:55:16.284Z,40.67
2023-01-01T13:58:11.749Z,40.81
2023-01-01T14:00:50.042Z,41.04
2023-01-01T14:03:22.220Z,40.91
2023-01-01T14:05:58.098Z,40.75
2023-01-01T14:08:30.955Z,40.75
2023-01-01T14:11:02.378Z,40.68
2023-01-01T14:13:32.620Z,41.01
2023-01-01T14:16:04.235Z,41.30
2023-01-01T14:18:35.591Z,41.17
2023-01-01T14:21:11.082Z,41.56
2023-01-01T14:23:42.922Z,42.18
2023-01-01T14:26:15.021Z,42.53
2023-01-01T14:28:45.102Z,42.80
2023-01-01T14:31:17.247Z,43.06
2023-01-01T14:33:47.426Z,43.14
2023-01-01T14:36:23.244Z,43.52
2023-01-01T14:38:53.132Z,44.43
2023-01-01T14:41:28.663Z,45.02
2023-01-01T14:44:00.037Z,45.65
2023-01-01T14:46:29.171Z,46.08
2023-01-01T14:48:59.685Z,46.72
2023-01-01T14:51:33.106Z,46.89
2023-01-01T14:54:03.929Z,47.26
2023-01-01T14:56:35.297Z,48.05
2023-01-01T14:59:07.939Z,48.40
2023-01-01T15:01:37.274Z,49.22
2023-01-01T15:04:18.999Z,49.88
2023-01-01T15:06:54.824Z,50.56
2023-01-01T15:09:23.534Z,51.12
2023-01-01T15:11:53.841Z,51.01
2023-01-01T15:14:34.696Z,51.59
2023-01-01T15:17:05.647Z,51.88
2023-01-01T15:19:36.877Z,52.16
2023-01-01T15:22:12.366Z,52.43
2023-01-01T15:24:42.092Z,52.83
2023-01-01T15:27:22.576Z,53.02
2023-01-01T15:29:52.044Z,53.57
2023-01-01T15:32:26.349Z,53.84
2023-01-01T15:34:57.765Z,54.14
2023-01-01T15:37:34.563Z,54.24
2023-01-01T15:40:24.308Z,54.81
2023-01-01T15:43:22.675Z,55.01
2023-01-01T15:45:54.849Z,55.32
2023-01-01T15:48:31.307Z,55.68
2023-01-01T15:51:13.124Z,55.94
2023-01-01T15:53:50.434Z,55.88
2023-01-01T15:56:19.655Z,56.45
2023-01-01T15:58:56.763Z,56.57
2023-01-01T16:01:29.144Z,56.79
2023-01-01T16:04:04.366Z,57.21
2023-01-01T16:06:33.539Z,57.36
2023-01-01T16:09:02.433Z,57.65
2023-01-01T16:11:30.809Z,57.76
2023-01-01T16:14:01.431Z,58.06
2023-01-01T16:16:32.266Z,58.11
2023-01-01T16:19:02.681Z,58.38
2023-01-01T16:21:34.326Z,58.45
2023-01-01T16:24:02.741Z,58.79
2023-01-01T16:26:32.298Z,58.77
2023-01-01T16:29:02.479Z,59.21
2023-01-01T16:31:32.102Z,59.58
2023-01-01T16:34:02.205Z,59.36
2023-01-01T16:36:32.340Z,59.53
2023-01-01T16:39:01.290Z,59.76
2023-01-01T16:41:30.981Z,59.87
2023-01-01T16:43:59.989Z,60.28
2023-01-01T16:46:30.280Z,60.61
2023-01-01T16:48:59.696Z,60.45
2023-01-01T16:51:30.122Z,60.59
2023-01-01T16:54:01.376Z,60.74
2023-01-01T16:56:30.137Z,60.86
2023-01-01T16:59:03.444Z,61.22
2023-01-01T17:01:33.710Z,61.04
2023-01-01T17:04:03.230Z,61.03
2023-01-01T17:06:31.687Z,61.41
2023-01-01T17:09:01.633Z,61.54
2023-01-01T17:11:29.985Z,61.67
2023-01-01T17:13:59.627Z,62.29
2023-01-01T17:16:36.246Z,62.36
2023-01-01T17:19:14.890Z,62.29
2023-01-01T17:21:45.173Z,62.55
2023-01-01T17:24:13.789Z,62.42
2023-01-01T17:26:42.211Z,62.50
2023-01-01T17:29:12.211Z,62.93
2023-01-01T17:31:40.655Z,62.76
2023-01-01T17:34:14.512Z,62.80
2023-01-01T17:36:45.137Z,63.02
2023-01-01T17:39:15.245Z,63.20
2023-01-01T17:41:45.767Z,63.22
2023-01-01T17:44:14.229Z,63.64
2023-01-01T17:46:44.740Z,63.67
2023-01-01T17:49:14.688Z,63.15
2023-01-01T17:51:43.281Z,63.31
2023-01-01T17:54:14.189Z,63.54
2023-01-01T17:56:42.872Z,63.86
2023-01-01T17:59:12.302Z,63.54
2023-01-01T18:01:40.712Z,63.56
2023-01-01T18:04:10.848Z,63.69
2023-01-01T18:06:44.251Z,63.85
2023-01-01T18:09:16.263Z,63.98
2023-01-01T18:11:45.891Z,64.36
2023-01-01T18:14:17.332Z,64.49
2023-01-01T18:16:50.171Z,64.17
2023-01-01T18:19:19.287Z,64.60
2023-01-01T18:21:49.559Z,64.54
2023-01-01T18:24:17.925Z,64.38
2023-01-01T18:26:46.606Z,64.50
2023-01-01T18:29:15.487Z,64.86
2023-01-01T18:31:45.286Z,64.95
2023-01-01T18:34:14.318Z,65.17
2023-01-01T18:36:42.701Z,65.22
2023-01-01T18:39:17.602Z,65.37
2023-01-01T18:42:09.390Z,65.70
2023-01-01T18:44:38.003Z,65.52
2023-01-01T18:47:14.872Z,65.78
2023-01-01T18:49:48.918Z,65.89
2023-01-01T18:52:25.219Z,66.01
2023-01-01T18:55:13.527Z,66.44
2023-01-01T18:57:42.696Z,66.69
2023-01-01T19:00:22.839Z,66.68
2023-01-01T19:02:58.453Z,66.52
2023-01-01T19:05:29.936Z,66.99
2023-01-01T19:08:04.195Z,67.00
2023-01-01T19:10:38.484Z,67.04
2023-01-01T19:13:16.467Z,67.01
2023-01-01T19:15:47.216Z,67.39
2023-01-01T19:18:17.620Z,67.05
2023-01-01T19:20:46.737Z,67.23
2023-01-01T19:23:20.055Z,67.36
2023-01-01T19:25:51.153Z,67.50
2023-01-01T19:28:35.317Z,67.65
2023-01-01T19:31:05.333Z,67.39
2023-01-01T19:33:34.439Z,67.56
2023-01-01T19:36:02.757Z,67.39
2023-01-01T19:38:31.609Z,67.63
2023-01-01T19:41:01.343Z,67.36
2023-01-01T19:43:30.901Z,67.38
2023-01-01T19:45:59.357Z,67.36
2023-01-01T19:48:28.514Z,67.72
2023-01-01T19:50:57.259Z,67.44
2023-01-01T19:53:25.702Z,67.51
2023-01-01T19:55:54.704Z,67.52
2023-01-01T19:58:24.761Z,67.64
2023-01-01T20:00:53.929Z,67.71
2023-01-01T20:06:12.989Z,67.38
2023-01-01T20:08:41.798Z,67.39
2023-01-01T20:11:10.138Z,67.47
2023-01-01T20:13:40.114Z,67.58
2023-01-01T20:16:09.780Z,67.78
2023-01-01T20:18:38.170Z,67.49
2023-01-01T20:21:26.623Z,67.49
2023-01-01T20:23:56.181Z,67.65
2023-01-01T20:26:26.180Z,67.47
2023-01-01T20:29:18.980Z,67.54
2023-01-01T20:31:48.575Z,67.44
2023-01-01T20:34:17.035Z,67.96
2023-01-01T20:37:05.296Z,67.72
2023-01-01T20:39:34.165Z,67.64
2023-01-01T20:42:02.551Z,67.78
2023-01-01T20:44:32.880Z,68.00
2023-01-01T20:47:01.542Z,67.85
2023-01-01T20:49:29.898Z,67.80
2023-01-01T20:51:58.681Z,68.13
2023-01-01T20:54:27.181Z,67.71
2023-01-01T20:56:55.573Z,67.18
2023-01-01T20:59:35.247Z,67.05
2023-01-01T21:02:06.725Z,67.55
2023-01-01T21:04:39.388Z,67.64
2023-01-01T21:07:10.041Z,67.82
2023-01-01T21:09:39.945Z,67.51
2023-01-01T21:12:09.152Z,67.74
2023-01-01T21:14:37.961Z,67.76
2023-01-01T21:17:21.430Z,67.59
2023-01-01T21:19:50.617Z,67.72
2023-01-01T21:22:19.397Z,67.76
2023-01-01T21:24:53.544Z,67.84
2023-01-01T21:27:29.561Z,67.72
2023-01-01T21:29:58.781Z,68.26
2023-01-01T21:32:38.501Z,68.12
2023-01-01T21:35:17.223Z,68.23
2023-01-01T21:37:50.297Z,67.88
2023-01-01T21:40:41.100Z,67.94
2023-01-01T21:43:32.737Z,68.20
2023-01-01T21:46:22.301Z,68.11
2023-01-01T21:48:59.685Z,68.46
2023-01-01T21:51:31.449Z,68.41
2023-01-01T21:54:17.859Z,68.35
2023-01-01T21:56:53.969Z,68.18
2023-01-01T21:59:30.597Z,68.15
2023-01-01T22:02:19.512Z,67.96
2023-01-01T22:04:51.803Z,68.10
2023-01-01T22:10:18.192Z,67.94
2023-01-01T22:12:47.237Z,68.16
2023-01-01T22:15:30.337Z,68.33
2023-01-01T22:18:16.593Z,67.93
2023-01-01T22:20:47.834Z,68.06
2023-01-01T22:23:34.721Z,67.91
2023-01-01T22:26:19.843Z,68.21
2023-01-01T22:28:51.409Z,68.23
2023-01-01T22:31:24.990Z,68.26
2023-01-01T22:33:55.322Z,68.06
2023-01-01T22:36:28.063Z,67.95
2023-01-01T22:39:01.532Z,67.93
2023-01-01T22:41:30.841Z,67.90
2023-01-01T22:44:03.501Z,68.20
2023-01-01T22:46:36.911Z,68.30
2023-01-01T22:49:16.521Z,68.02
2023-01-01T22:51:48.311Z,67.75
2023-01-01T22:54:17.044Z,67.91
2023-01-01T22:56:45.364Z,68.31
2023-01-01T22:59:14.450Z,68.55
2023-01-01T23:01:42.808Z,68.50
2023-01-01T23:04:12.057Z,68.60
2023-01-01T23:06:40.677Z,68.46
2023-01-01T23:09:11.840Z,68.81
2023-01-01T23:11:41.039Z,68.13
2023-01-01T23:14:27.686Z,67.99
2023-01-01T23:16:56.288Z,67.87
2023-01-01T23:19:24.630Z,68.01
2023-01-01T23:21:53.070Z,68.15
2023-01-01T23:24:25.582Z,68.33
2023-01-01T23:26:54.609Z,67.86
2023-01-01T23:29:24.702Z,68.19
2023-01-01T23:31:53.817Z,68.34
2023-01-01T23:34:22.406Z,68.19
2023-01-01T23:36:54.327Z,67.94
2023-01-01T23:39:24.056Z,68.25
2023-01-01T23:41:53.176Z,68.58
2023-01-01T23:44:21.489Z,68.63
2023-01-01T23:46:50.936Z,68.51
2023-01-01T23:49:20.365Z,68.71
2023-01-01T23:51:49.729Z,68.38
2023-01-01T23:54:18.824Z,68.80
2023-01-01T23:56:48.592Z,68.23
2023-01-01T23:59:17.607Z,67.95
